Time;durP1;ratioP1;P1;durP2;ratioP2;P2;SDS_P1;SDS_P2;PMS_P1;PMS_P2;Temp;Humidity;BMP_temperature;BMP_pressure;BME280_temperature;BME280_humidity;BME280_pressure;Samples;Min_cycle;Max_cycle;Signal;HPM_P1;HPM_P2
2021/03/16 00:02:46;;;;;;;252.47;87.45;;;;;;;-0.63;75.02;97989.71;2116721;84;21864;-84
2021/03/16 00:05:48;;;;;;;269.48;94.20;;;;;;;-0.59;74.81;97992.36;2116709;84;21305;-84
2021/03/16 00:08:50;;;;;;;230.30;77.72;;;;;;;-0.56;74.86;98000.28;2116483;84;21277;-84
2021/03/16 00:11:51;;;;;;;208.50;72.82;;;;;;;-0.51;74.85;97999.92;2116440;84;21207;-83
2021/03/16 00:14:53;;;;;;;154.63;54.67;;;;;;;-0.44;75.00;97994.14;2134028;83;21316;-83
2021/03/16 00:17:54;;;;;;;102.12;40.28;;;;;;;-0.36;74.89;98000.75;2149389;83;21324;-84
2021/03/16 00:20:56;;;;;;;83.60;37.05;;;;;;;-0.46;74.61;98006.77;2149447;83;21309;-84
2021/03/16 00:23:58;;;;;;;92.40;36.10;;;;;;;-0.46;74.86;98005.00;2149471;83;21284;-84
2021/03/16 00:26:59;;;;;;;140.57;53.42;;;;;;;-0.53;74.63;98006.95;2149475;83;21301;-84
2021/03/16 00:30:01;;;;;;;107.05;42.78;;;;;;;-0.58;74.82;98006.03;2149558;83;21774;-84
2021/03/16 00:33:03;;;;;;;129.25;49.05;;;;;;;-0.59;75.02;98006.50;2150100;83;21206;-83
2021/03/16 00:36:05;;;;;;;322.20;104.50;;;;;;;-0.55;74.97;98005.77;2149506;83;21785;-84
2021/03/16 00:39:06;;;;;;;241.35;76.30;;;;;;;-0.53;75.05;98003.91;2149625;83;21332;-84
2021/03/16 00:42:08;;;;;;;104.75;39.85;;;;;;;-0.48;75.14;98006.89;2149774;83;21723;-85
2021/03/16 00:45:09;;;;;;;84.35;35.68;;;;;;;-0.45;75.20;98009.23;2149604;83;21298;-83
2021/03/16 00:48:11;;;;;;;78.70;34.65;;;;;;;-0.40;75.18;98012.70;2149795;83;21344;-84
2021/03/16 00:51:12;;;;;;;75.00;32.23;;;;;;;-0.40;74.99;98010.94;2149429;83;21178;-84
2021/03/16 00:54:14;;;;;;;66.12;31.27;;;;;;;-0.43;75.05;98006.06;2149650;83;21559;-84
2021/03/16 00:57:16;;;;;;;76.28;34.15;;;;;;;-0.45;75.03;98007.95;2149650;83;21329;-84
2021/03/16 01:00:17;;;;;;;119.55;43.95;;;;;;;-0.48;74.94;98007.37;2149446;83;21313;-84
2021/03/16 01:03:19;;;;;;;196.28;63.85;;;;;;;-0.52;74.96;98011.15;2149426;83;21340;-84
2021/03/16 01:06:21;;;;;;;107.15;39.50;;;;;;;-0.55;75.05;98007.05;2149430;83;21195;-82
2021/03/16 01:09:23;;;;;;;89.30;35.63;;;;;;;-0.58;75.03;98006.84;2150041;83;21684;-83
2021/03/16 01:12:25;;;;;;;110.20;42.60;;;;;;;-0.58;75.04;98002.17;2149640;83;21198;-82
2021/03/16 01:15:26;;;;;;;104.75;42.40;;;;;;;-0.60;75.21;98008.73;2149554;82;21179;-84
2021/03/16 01:18:28;;;;;;;120.92;45.52;;;;;;;-0.62;75.10;97996.48;2149789;83;21745;-85
2021/03/16 01:21:29;;;;;;;118.67;46.50;;;;;;;-0.64;74.99;97996.24;2149482;83;21301;-84
2021/03/16 01:24:31;;;;;;;126.47;45.70;;;;;;;-0.66;74.88;97998.94;2149713;83;21199;-85
2021/03/16 01:27:32;;;;;;;123.65;47.27;;;;;;;-0.71;74.77;97998.52;2149560;83;21320;-85
2021/03/16 01:30:34;;;;;;;132.67;47.10;;;;;;;-0.75;74.83;97997.13;2149917;83;21713;-85
2021/03/16 01:33:35;;;;;;;108.97;41.40;;;;;;;-0.81;74.91;97999.41;2149637;83;21333;-85
2021/03/16 01:36:37;;;;;;;90.53;38.00;;;;;;;-0.82;75.00;97999.03;2149689;83;21178;-85
2021/03/16 01:39:39;;;;;;;75.65;30.00;;;;;;;-0.82;75.11;98002.45;2149942;82;21328;-85
2021/03/16 01:42:40;;;;;;;72.30;31.37;;;;;;;-0.86;75.11;98004.91;2149994;83;21152;-86
2021/03/16 01:45:42;;;;;;;44.90;21.27;;;;;;;-0.91;74.97;97999.34;2149927;83;21127;-85
2021/03/16 01:48:43;;;;;;;49.75;23.42;;;;;;;-1.12;74.70;97998.49;2149894;83;21328;-85
2021/03/16 01:51:45;;;;;;;66.87;31.45;;;;;;;-1.20;75.10;98003.77;2150557;83;21571;-84
2021/03/16 01:54:46;;;;;;;82.55;39.30;;;;;;;-1.25;75.25;98003.34;2149706;83;21316;-84
2021/03/16 01:57:48;;;;;;;84.65;39.35;;;;;;;-1.25;75.16;98001.23;2149920;83;21590;-85
2021/03/16 02:00:50;;;;;;;82.30;40.48;;;;;;;-1.20;75.22;98002.48;2149576;83;21301;-85
2021/03/16 02:03:51;;;;;;;84.25;38.13;;;;;;;-1.17;75.24;97998.88;2149745;83;21174;-84
2021/03/16 02:06:53;;;;;;;61.92;29.57;;;;;;;-1.14;75.12;98002.47;2149782;83;21179;-84
2021/03/16 02:09:55;;;;;;;52.78;27.85;;;;;;;-1.10;75.15;98012.02;2149557;83;21146;-85
2021/03/16 02:12:56;;;;;;;60.65;28.23;;;;;;;-1.08;75.26;98017.41;2149842;81;21163;-85
2021/03/16 02:15:58;;;;;;;80.07;36.40;;;;;;;-1.16;74.87;98012.06;2149648;83;21740;-84
2021/03/16 02:18:59;;;;;;;87.02;39.50;;;;;;;-1.26;74.73;98015.84;2149897;83;21296;-84
2021/03/16 02:22:01;;;;;;;153.90;62.73;;;;;;;-1.28;75.39;98016.44;2149564;83;21324;-84
2021/03/16 02:25:02;;;;;;;157.20;64.97;;;;;;;-1.28;75.37;98019.44;2150091;83;21603;-85
2021/03/16 02:28:04;;;;;;;142.43;60.65;;;;;;;-1.28;75.33;98023.30;2149896;83;21732;-84
2021/03/16 02:31:06;;;;;;;146.25;59.13;;;;;;;-1.29;75.04;98026.34;2149571;83;21320;-84
2021/03/16 02:34:08;;;;;;;154.90;64.60;;;;;;;-1.31;74.90;98026.94;2149755;83;21159;-84
2021/03/16 02:37:09;;;;;;;141.45;63.05;;;;;;;-1.39;75.01;98024.16;2149890;83;21332;-85
2021/03/16 02:40:11;;;;;;;133.82;57.98;;;;;;;-1.35;75.21;98019.61;2149671;83;21780;-84
2021/03/16 02:43:12;;;;;;;137.75;60.78;;;;;;;-1.32;75.09;98013.75;2149890;83;21324;-83
2021/03/16 02:46:14;;;;;;;139.37;59.23;;;;;;;-1.30;75.16;98015.72;2149585;83;21293;-83
2021/03/16 02:49:15;;;;;;;148.43;63.63;;;;;;;-1.26;75.10;98020.98;2149905;83;21336;-84
2021/03/16 02:52:17;;;;;;;149.02;59.73;;;;;;;-1.23;75.06;98022.48;2149557;83;21333;-84
2021/03/16 02:55:19;;;;;;;104.27;47.50;;;;;;;-1.21;75.19;98021.41;2149897;83;21332;-84
2021/03/16 02:58:20;;;;;;;102.50;48.00;;;;;;;-1.23;74.95;98021.19;2150026;83;21292;-84
2021/03/16 03:01:22;;;;;;;93.15;47.05;;;;;;;-1.31;75.00;98017.94;2149722;83;21725;-84
2021/03/16 03:04:23;;;;;;;112.05;49.03;;;;;;;-1.33;75.07;98023.67;2151202;83;21159;-81
2021/03/16 03:07:25;;;;;;;106.32;46.37;;;;;;;-1.36;75.11;98025.22;2153234;83;21174;-82
2021/03/16 03:10:26;;;;;;;131.07;58.45;;;;;;;-1.40;74.90;98025.56;2153763;83;21179;-83
2021/03/16 03:13:28;;;;;;;129.25;54.20;;;;;;;-1.61;74.59;98033.20;2153180;83;21151;-84
2021/03/16 03:16:29;;;;;;;124.65;58.40;;;;;;;-1.82;74.63;98032.66;2123423;83;21191;-84
2021/03/16 03:19:31;;;;;;;124.70;57.80;;;;;;;-1.89;75.19;98035.34;2116964;84;21320;-84
2021/03/16 03:22:32;;;;;;;114.22;51.10;;;;;;;-1.80;75.34;98045.37;2116649;84;21345;-84
2021/03/16 03:25:34;;;;;;;114.00;51.65;;;;;;;-1.75;75.29;98040.21;2116540;84;21349;-84
2021/03/16 03:28:36;;;;;;;112.50;50.63;;;;;;;-1.71;75.27;98045.94;2116698;84;21163;-84
2021/03/16 03:31:37;;;;;;;100.00;47.35;;;;;;;-1.65;75.32;98043.34;2116790;84;21293;-83
2021/03/16 03:34:39;;;;;;;108.35;52.00;;;;;;;-1.65;75.50;98034.36;2116744;84;21765;-83
2021/03/16 03:37:40;;;;;;;109.97;52.23;;;;;;;-1.64;75.39;98040.69;2116670;84;21191;-83
2021/03/16 03:40:42;;;;;;;115.20;54.42;;;;;;;-1.58;75.30;98045.80;2116550;84;21594;-84
2021/03/16 03:43:44;;;;;;;102.53;47.65;;;;;;;-1.59;75.09;98043.70;2116339;84;21312;-84
2021/03/16 03:46:45;;;;;;;88.97;43.60;;;;;;;-1.61;75.20;98054.56;2116708;84;21752;-84
2021/03/16 03:49:47;;;;;;;80.47;41.37;;;;;;;-1.56;75.21;98051.62;2116627;84;21324;-84
2021/03/16 03:52:48;;;;;;;90.25;44.08;;;;;;;-1.53;75.05;98059.92;2116661;84;21844;-84
2021/03/16 03:55:50;;;;;;;70.17;34.48;;;;;;;-1.54;74.95;98059.58;2116851;84;21294;-83
2021/03/16 03:58:51;;;;;;;56.75;28.45;;;;;;;-1.54;74.95;98059.58;2116673;84;21709;-83
2021/03/16 04:01:53;;;;;;;78.57;38.20;;;;;;;-1.49;75.14;98060.48;2116617;84;21337;-84
2021/03/16 04:04:55;;;;;;;54.35;28.95;;;;;;;-1.60;74.75;98068.21;2116772;84;21349;-83
2021/03/16 04:07:56;;;;;;;63.40;30.52;;;;;;;-1.62;75.24;98070.09;2116550;84;21728;-85
2021/03/16 04:10:58;;;;;;;54.10;28.30;;;;;;;-1.68;75.17;98075.22;2116850;84;21115;-84
2021/03/16 04:14:00;;;;;;;58.38;29.63;;;;;;;-1.69;75.39;98072.30;2116701;84;21174;-85
2021/03/16 04:17:01;;;;;;;58.58;29.65;;;;;;;-1.67;75.30;98071.70;2145221;83;21766;-83
2021/03/16 04:20:03;;;;;;;63.08;30.95;;;;;;;-1.62;75.40;98067.52;2149706;83;21316;-84
2021/03/16 04:23:05;;;;;;;60.43;30.23;;;;;;;-1.62;75.30;98074.75;2149579;83;21618;-84
2021/03/16 04:26:07;;;;;;;85.70;37.35;;;;;;;-1.59;75.39;98074.50;2149758;83;21638;-83
2021/03/16 04:29:08;;;;;;;75.30;35.45;;;;;;;-1.59;75.30;98083.48;2149469;83;21142;-85
2021/03/16 04:32:10;;;;;;;79.58;37.23;;;;;;;-1.62;75.36;98079.89;2149498;83;21736;-83
2021/03/16 04:35:12;;;;;;;76.30;37.00;;;;;;;-1.58;75.62;98084.30;2149735;83;21123;-84
2021/03/16 04:38:13;;;;;;;71.65;33.25;;;;;;;-1.57;75.41;98083.37;2149745;81;21167;-84
2021/03/16 04:41:15;;;;;;;75.20;35.38;;;;;;;-1.66;75.52;98076.38;2149645;83;21474;-83
2021/03/16 04:44:17;;;;;;;65.83;34.65;;;;;;;-1.65;75.48;98083.14;2149754;83;21185;-83
2021/03/16 04:47:18;;;;;;;85.50;36.35;;;;;;;-1.66;75.68;98083.61;2149400;83;21214;-84
2021/03/16 04:50:20;;;;;;;69.30;35.17;;;;;;;-1.61;75.42;98092.25;2149564;83;21579;-84
2021/03/16 04:53:21;;;;;;;75.37;35.05;;;;;;;-1.56;75.21;98091.41;2149760;83;21301;-84
2021/03/16 04:56:23;;;;;;;76.90;34.08;;;;;;;-1.60;75.09;98083.61;2149477;83;21182;-83
2021/03/16 04:59:25;;;;;;;73.65;34.80;;;;;;;-1.58;75.20;98085.59;2149878;83;21347;-83
2021/03/16 05:02:26;;;;;;;65.97;32.73;;;;;;;-1.58;75.18;98090.72;2149697;83;21328;-84
2021/03/16 05:05:28;;;;;;;68.40;32.75;;;;;;;-1.58;75.26;98087.69;2149402;83;21151;-84
2021/03/16 05:08:29;;;;;;;95.90;42.00;;;;;;;-1.54;75.32;98089.57;2149504;83;21308;-84
2021/03/16 05:11:31;;;;;;;120.90;49.98;;;;;;;-1.49;75.57;98080.55;2149933;83;21325;-84
2021/03/16 05:14:32;;;;;;;101.90;43.05;;;;;;;-1.40;75.57;98084.62;2149655;83;21218;-83
2021/03/16 05:17:34;;;;;;;73.67;37.45;;;;;;;-1.35;75.63;98078.21;2108514;82;21313;-84
2021/03/16 05:20:36;;;;;;;78.37;37.05;;;;;;;-1.31;75.58;98073.17;2106954;84;21171;-84
2021/03/16 05:23:37;;;;;;;76.40;35.60;;;;;;;-1.26;75.69;98074.92;2107049;84;21154;-84
2021/03/16 05:26:39;;;;;;;80.40;39.65;;;;;;;-1.20;75.44;98080.02;2107013;84;21191;-84
2021/03/16 05:29:40;;;;;;;74.07;38.15;;;;;;;-1.25;74.51;98088.58;2106892;84;21297;-85
2021/03/16 05:32:42;;;;;;;58.55;30.40;;;;;;;-1.44;74.38;98090.48;2107625;84;21576;-85
2021/03/16 05:35:44;;;;;;;63.35;30.75;;;;;;;-1.46;74.89;98098.31;2106952;84;21588;-84
2021/03/16 05:38:45;;;;;;;63.73;34.58;;;;;;;-1.46;75.00;98089.80;2106777;84;21305;-83
2021/03/16 05:41:47;;;;;;;64.72;32.48;;;;;;;-1.37;75.21;98095.94;2106954;84;21643;-84
2021/03/16 05:44:49;;;;;;;65.95;34.58;;;;;;;-1.25;75.32;98095.81;2106707;84;21643;-85
2021/03/16 05:47:50;;;;;;;63.58;32.70;;;;;;;-1.11;75.29;98095.19;2106700;84;22228;-84
2021/03/16 05:50:52;;;;;;;63.15;33.50;;;;;;;-0.97;75.30;98105.20;2106968;84;21594;-85
2021/03/16 05:53:54;;;;;;;68.02;34.63;;;;;;;-0.82;75.31;98110.42;2106776;84;21619;-86
2021/03/16 05:56:55;;;;;;;73.17;37.73;;;;;;;-0.64;75.36;98109.38;2107002;84;21614;-84
2021/03/16 05:59:57;;;;;;;74.05;38.08;;;;;;;-0.47;75.41;98106.26;2107517;84;21774;-81
2021/03/16 06:02:58;;;;;;;83.75;42.58;;;;;;;-0.26;75.30;98117.05;2107034;84;21183;-82
2021/03/16 06:06:00;;;;;;;91.45;49.13;;;;;;;-0.16;75.15;98123.88;2106728;84;21277;-87
2021/03/16 06:09:02;;;;;;;91.42;46.80;;;;;;;-0.01;75.00;98120.49;2107231;84;21588;-86
2021/03/16 06:12:04;;;;;;;91.90;46.60;;;;;;;0.15;74.88;98128.58;2107056;84;21179;-86
2021/03/16 06:15:05;;;;;;;98.03;44.90;;;;;;;0.28;75.16;98121.48;2109120;83;21183;-85
2021/03/16 06:18:07;;;;;;;89.45;45.90;;;;;;;0.51;75.00;98125.14;2149940;83;21297;-83
2021/03/16 06:21:09;;;;;;;85.38;43.28;;;;;;;0.81;75.24;98122.98;2150787;83;21316;-83
2021/03/16 06:24:10;;;;;;;83.00;43.33;;;;;;;1.09;75.39;98135.10;2150874;83;21289;-85
2021/03/16 06:27:12;;;;;;;81.42;43.70;;;;;;;1.28;75.05;98136.91;2149966;83;21289;-86
2021/03/16 06:30:13;;;;;;;82.40;45.65;;;;;;;1.35;74.74;98135.40;2150339;83;21179;-85
2021/03/16 06:33:15;;;;;;;82.20;45.23;;;;;;;1.42;74.89;98141.66;2150264;83;21789;-87
2021/03/16 06:36:17;;;;;;;90.10;45.52;;;;;;;1.57;74.98;98133.05;2149954;82;21853;-87
2021/03/16 06:39:20;;;;;;;88.87;47.88;;;;;;;1.72;74.83;98152.78;2149691;83;21281;-86
2021/03/16 06:42:22;;;;;;;87.22;46.98;;;;;;;1.77;74.62;98154.96;2149546;81;21301;-87
2021/03/16 07:08:01;;;;;;;95.55;50.48;;;;;;;2.56;73.98;98173.06;2259370;79;24887;-85
2021/03/16 07:11:19;;;;;;;97.90;53.58;;;;;;;2.66;73.79;98169.14;2222801;80;21167;-83
2021/03/16 07:42:40;;;;;;;121.40;67.92;;;;;;;4.63;72.10;98188.82;2361753;75;23889;-88
2021/03/16 07:45:42;;;;;;;142.72;79.45;;;;;;;4.68;71.53;98195.66;2281223;77;21123;-88
2021/03/16 07:48:45;;;;;;;116.25;61.68;;;;;;;4.82;71.68;98196.85;2295182;77;21233;-88
2021/03/16 07:51:47;;;;;;;104.30;61.10;;;;;;;5.03;71.61;98208.11;2306410;77;21284;-88
2021/03/16 07:54:49;;;;;;;118.15;68.20;;;;;;;5.19;71.50;98208.18;2293339;77;21111;-89
2021/03/16 07:57:51;;;;;;;111.88;63.78;;;;;;;5.33;70.94;98214.56;2292900;77;21278;-90
2021/03/16 08:00:52;;;;;;;110.30;60.70;;;;;;;5.48;71.15;98219.94;2274616;77;21123;-93
2021/03/16 08:03:54;;;;;;;84.72;49.67;;;;;;;5.65;70.79;98215.91;2279986;77;21115;-89
2021/03/16 08:06:55;;;;;;;92.57;55.03;;;;;;;5.75;70.02;98207.97;2302156;77;21257;-90
2021/03/16 08:09:58;;;;;;;95.32;57.75;;;;;;;5.83;70.39;98213.17;2298399;77;21150;-89
2021/03/16 08:13:00;;;;;;;103.80;62.83;;;;;;;6.05;70.12;98213.56;2320905;77;21131;-86
2021/03/16 08:16:02;;;;;;;110.72;63.35;;;;;;;6.34;69.48;98214.34;2320455;77;21116;-91
2021/03/16 08:19:03;;;;;;;105.07;63.78;;;;;;;6.56;68.57;98207.95;2321362;77;21282;-88
2021/03/16 08:22:08;;;;;;;111.55;68.75;;;;;;;6.74;68.60;98206.94;2303098;77;21506;-89
2021/03/16 08:25:14;;;;;;;108.57;66.20;;;;;;;6.90;68.19;98215.19;2291025;77;21073;-94
2021/03/16 08:28:16;;;;;;;100.58;63.25;;;;;;;6.90;67.06;98213.88;2319097;77;21293;-85
2021/03/16 08:31:17;;;;;;;111.97;67.25;;;;;;;6.87;66.85;98216.34;2308029;76;21258;-84
2021/03/16 08:34:19;;;;;;;98.37;57.65;;;;;;;6.78;66.70;98217.34;2309442;77;21284;-84
2021/03/16 08:37:21;;;;;;;102.00;60.40;;;;;;;6.63;65.89;98217.70;2302331;77;21249;-86
2021/03/16 08:40:22;;;;;;;110.60;65.25;;;;;;;6.42;66.29;98216.94;2275324;77;21170;-83
2021/03/16 08:43:24;;;;;;;101.05;61.48;;;;;;;6.17;66.59;98219.55;2296063;77;21210;-86
2021/03/16 08:46:26;;;;;;;108.67;62.93;;;;;;;6.04;66.65;98224.44;2314835;77;21677;-85
2021/03/16 08:49:28;;;;;;;84.92;52.45;;;;;;;5.98;67.18;98223.78;2311988;77;21107;-85
2021/03/16 08:52:29;;;;;;;106.35;60.65;;;;;;;5.88;66.99;98224.40;2253587;77;21265;-85
2021/03/16 08:55:31;;;;;;;101.35;59.50;;;;;;;5.76;67.25;98228.27;2263572;77;21694;-86
2021/03/16 08:58:32;;;;;;;99.20;60.03;;;;;;;5.62;67.07;98230.53;2316191;77;21749;-85
2021/03/16 09:01:35;;;;;;;101.30;61.08;;;;;;;5.47;67.46;98234.70;2282094;77;21230;-85
2021/03/16 09:04:37;;;;;;;97.90;55.03;;;;;;;5.40;67.94;98241.04;2273803;77;21314;-85
2021/03/16 09:07:39;;;;;;;104.92;63.55;;;;;;;5.41;68.01;98239.25;2297498;77;21258;-87
2021/03/16 09:10:40;;;;;;;103.27;62.58;;;;;;;5.40;68.27;98237.14;2279176;77;21139;-86
2021/03/16 09:13:42;;;;;;;117.25;65.97;;;;;;;5.46;68.25;98238.27;2274423;78;21265;-84
2021/03/16 09:16:44;;;;;;;83.05;50.12;;;;;;;5.57;68.44;98239.76;2281057;77;21214;-84
2021/03/16 09:19:46;;;;;;;88.65;54.33;;;;;;;5.61;67.93;98243.67;2273521;78;21120;-85
2021/03/16 09:22:51;;;;;;;103.60;58.63;;;;;;;5.63;68.18;98233.94;2280446;77;21298;-85
2021/03/16 09:25:51;;;;;;;86.28;51.60;;;;;;;5.70;68.31;98240.94;2273948;78;21131;-84
2021/03/16 09:28:52;;;;;;;80.07;48.87;;;;;;;5.70;68.20;98247.92;2283193;77;21229;-84
2021/03/16 09:31:54;;;;;;;83.05;48.13;;;;;;;5.70;68.25;98242.72;2279088;77;21245;-85
2021/03/16 09:34:55;;;;;;;86.72;50.15;;;;;;;5.73;68.45;98241.58;2277758;77;21261;-85
2021/03/16 09:37:57;;;;;;;83.70;52.00;;;;;;;5.95;69.95;98242.30;2281417;77;21115;-85
2021/03/16 09:40:58;;;;;;;78.87;48.92;;;;;;;6.20;68.83;98244.41;2266430;77;21297;-85
2021/03/16 09:44:00;;;;;;;77.82;46.90;;;;;;;6.33;67.61;98243.92;2226241;78;21103;-87
2021/03/16 09:47:01;;;;;;;66.07;43.08;;;;;;;6.50;67.30;98245.53;2270468;77;21115;-85
2021/03/16 09:50:03;;;;;;;59.42;38.63;;;;;;;6.56;66.26;98245.67;2281809;77;21723;-86
2021/03/16 09:53:05;;;;;;;60.30;40.83;;;;;;;6.75;65.74;98248.88;2239557;77;21286;-85
2021/03/16 09:56:09;;;;;;;60.10;36.08;;;;;;;6.97;65.51;98249.98;2269717;77;21685;-90
2021/03/16 09:59:10;;;;;;;50.40;33.15;;;;;;;7.27;65.21;98248.39;2310916;77;21211;-90
2021/03/16 10:02:11;;;;;;;41.45;28.45;;;;;;;7.61;64.36;98251.48;2278323;77;21250;-89
2021/03/16 10:05:13;;;;;;;54.73;35.90;;;;;;;7.94;63.38;98246.86;2301740;77;21262;-88
2021/03/16 10:08:14;;;;;;;57.67;36.10;;;;;;;8.21;62.40;98244.20;2283606;77;21575;-90
2021/03/16 10:11:16;;;;;;;50.65;34.53;;;;;;;8.45;62.94;98239.31;2291525;77;21207;-89
2021/03/16 10:14:17;;;;;;;51.55;32.73;;;;;;;8.67;61.93;98242.03;2306376;77;21543;-89
2021/03/16 10:17:19;;;;;;;54.83;34.60;;;;;;;8.85;61.85;98239.88;2275263;77;21286;-90
2021/03/16 10:20:20;;;;;;;46.83;31.30;;;;;;;9.03;62.04;98244.25;2286624;77;21770;-88
2021/03/16 10:23:22;;;;;;;51.60;35.52;;;;;;;9.22;61.34;98242.88;2257749;77;21250;-90
2021/03/16 10:26:24;;;;;;;49.08;33.92;;;;;;;9.36;60.40;98249.09;2268745;77;21687;-89
2021/03/16 10:29:26;;;;;;;52.08;32.60;;;;;;;9.41;60.40;98248.84;2296983;77;21218;-91
2021/03/16 10:32:27;;;;;;;47.83;31.97;;;;;;;9.50;59.94;98243.02;2268074;77;21278;-92
2021/03/16 10:35:29;;;;;;;49.95;32.67;;;;;;;9.65;59.52;98244.30;2267228;77;21285;-87
2021/03/16 10:41:57;;;;;;;42.38;30.25;;;;;;;9.72;58.64;98241.76;2109205;82;21346;-89
2021/03/16 10:45:10;;;;;;;47.67;32.17;;;;;;;9.86;58.56;98235.66;2251162;79;22976;-87
2021/03/16 10:48:11;;;;;;;34.58;26.85;;;;;;;9.87;58.30;98237.27;2213951;80;21281;-88
2021/03/16 10:51:13;;;;;;;32.78;22.73;;;;;;;9.91;57.75;98232.80;2119127;83;21291;-89
2021/03/16 10:54:14;;;;;;;30.62;21.20;;;;;;;9.90;56.75;98238.22;2089476;83;21324;-92
2021/03/16 10:57:16;;;;;;;26.23;19.30;;;;;;;9.83;56.60;98232.92;2105179;83;21702;-90
2021/03/16 11:00:18;;;;;;;29.45;20.72;;;;;;;9.77;56.76;98236.77;2086864;83;21189;-93
2021/03/16 11:03:19;;;;;;;29.80;21.57;;;;;;;9.65;55.77;98241.18;2118808;84;21173;-93
2021/03/16 11:06:21;;;;;;;36.28;25.23;;;;;;;9.65;56.17;98237.26;2109009;84;21314;-92
2021/03/16 11:09:22;;;;;;;39.60;27.45;;;;;;;9.64;55.73;98235.64;2085985;84;21188;-91
2021/03/16 11:12:27;;;;;;;51.42;35.58;;;;;;;9.67;55.96;98235.77;2138490;83;21323;-92
2021/03/16 11:15:28;;;;;;;55.28;36.23;;;;;;;9.78;56.00;98242.30;2156771;83;21103;-89
2021/03/16 11:18:30;;;;;;;47.90;32.95;;;;;;;9.91;54.01;98238.53;2151810;83;21146;-91
2021/03/16 11:21:31;;;;;;;48.52;34.70;;;;;;;10.01;54.96;98239.03;2137161;81;21146;-91
2021/03/16 11:24:33;;;;;;;51.77;34.90;;;;;;;10.17;55.28;98235.35;2132773;81;21144;-92
2021/03/16 11:27:34;;;;;;;48.63;33.88;;;;;;;10.33;55.46;98225.13;2125616;83;21807;-90
2021/03/16 11:30:36;;;;;;;44.40;31.00;;;;;;;10.46;55.80;98228.67;2121113;83;21155;-89
2021/03/16 11:33:38;;;;;;;42.53;30.10;;;;;;;10.57;55.37;98231.76;2102490;83;21290;-91
2021/03/16 11:36:39;;;;;;;42.58;29.70;;;;;;;10.60;54.41;98228.75;2115918;84;21306;-94
2021/03/16 11:39:44;;;;;;;42.53;27.98;;;;;;;10.48;54.85;98222.73;2121525;84;21755;-93
2021/03/16 11:42:44;;;;;;;39.85;27.60;;;;;;;10.32;53.43;98227.44;2118654;83;21407;-91
2021/03/16 11:45:46;;;;;;;42.85;29.23;;;;;;;9.92;54.58;98227.88;2139317;82;21120;-93
2021/03/16 11:48:48;;;;;;;47.58;31.20;;;;;;;9.51;55.34;98238.13;2104147;82;21267;-92
2021/03/16 11:51:49;;;;;;;44.45;30.32;;;;;;;9.18;55.83;98236.91;2123601;84;21105;-93
2021/03/16 11:54:51;;;;;;;33.98;24.40;;;;;;;8.93;57.03;98238.98;2157728;83;21285;-91
2021/03/16 11:57:54;;;;;;;34.92;24.60;;;;;;;8.69;57.39;98242.20;2125847;83;21305;-90
2021/03/16 12:00:56;;;;;;;35.40;24.43;;;;;;;8.53;58.12;98240.55;2148294;83;21258;-90
2021/03/16 12:03:57;;;;;;;31.82;23.10;;;;;;;8.40;58.79;98234.30;2155572;83;21175;-91
2021/03/16 12:06:59;;;;;;;32.98;23.22;;;;;;;8.38;59.18;98229.76;2155957;81;21289;-92
2021/03/16 12:10:01;;;;;;;26.73;21.48;;;;;;;8.39;59.11;98237.89;2133405;83;21311;-87
2021/03/16 12:13:02;;;;;;;24.40;18.48;;;;;;;8.42;59.50;98240.17;2125333;83;21135;-87
2021/03/16 12:16:04;;;;;;;25.72;20.72;;;;;;;8.57;59.67;98235.77;2143352;81;21115;-93
2021/03/16 12:19:05;;;;;;;28.35;20.17;;;;;;;8.73;59.25;98229.58;2143434;81;21158;-89
2021/03/16 12:22:07;;;;;;;28.02;21.73;;;;;;;8.87;58.95;98226.64;2132850;83;21753;-91
2021/03/16 12:25:09;;;;;;;30.08;22.87;;;;;;;9.00;58.98;98222.92;2145826;83;21158;-90
2021/03/16 12:28:10;;;;;;;28.00;21.62;;;;;;;9.14;58.89;98220.78;2154904;83;21336;-89
2021/03/16 12:31:12;;;;;;;32.08;22.70;;;;;;;9.20;58.26;98219.25;2155503;83;21273;-92
2021/03/16 12:34:13;;;;;;;32.05;22.67;;;;;;;9.23;58.44;98217.57;2151834;83;21161;-91
2021/03/16 12:37:15;;;;;;;27.32;21.30;;;;;;;9.26;58.51;98215.92;2123179;83;21714;-91
2021/03/16 12:40:16;;;;;;;29.35;21.12;;;;;;;9.28;58.50;98217.84;2133996;83;21542;-90
2021/03/16 12:43:20;;;;;;;35.45;24.50;;;;;;;9.25;58.34;98218.22;2135802;83;21312;-90
2021/03/16 12:46:21;;;;;;;35.40;23.22;;;;;;;9.23;58.59;98213.65;2126836;83;21312;-89
2021/03/16 12:49:23;;;;;;;31.60;23.38;;;;;;;9.25;58.40;98218.22;2142172;83;21300;-90
2021/03/16 12:52:25;;;;;;;34.67;24.37;;;;;;;9.24;58.60;98212.19;2089840;84;21151;-90
2021/03/16 12:55:26;;;;;;;27.95;22.42;;;;;;;9.21;57.28;98218.25;2116306;84;21139;-93
2021/03/16 12:58:28;;;;;;;33.48;23.40;;;;;;;9.19;56.87;98221.05;2116197;83;21328;-90
2021/03/16 13:01:29;;;;;;;31.95;22.27;;;;;;;9.17;57.02;98219.13;2129187;83;21123;-87
2021/03/16 13:04:31;;;;;;;35.88;24.85;;;;;;;9.22;57.18;98212.84;2152372;82;21143;-86
2021/03/16 13:07:32;;;;;;;37.33;26.82;;;;;;;9.22;55.66;98212.03;2145596;83;21163;-87
2021/03/16 13:10:34;;;;;;;34.73;25.85;;;;;;;9.12;56.46;98210.52;2119053;82;21306;-90
2021/03/16 13:13:35;;;;;;;28.05;22.05;;;;;;;9.10;55.52;98216.92;2139204;83;21278;-91
2021/03/16 13:16:37;;;;;;;26.10;19.40;;;;;;;9.13;56.00;98223.08;2128187;83;21296;-91
2021/03/16 13:19:39;;;;;;;21.73;15.00;;;;;;;9.25;55.27;98219.53;2150616;83;21245;-93
2021/03/16 13:22:40;;;;;;;18.07;14.40;;;;;;;9.30;54.83;98214.55;2133331;83;21328;-89
2021/03/16 13:25:42;;;;;;;22.32;16.48;;;;;;;9.35;55.26;98222.66;2122625;83;21269;-87
2021/03/16 13:28:44;;;;;;;30.72;21.82;;;;;;;9.41;55.70;98219.29;2129056;82;21662;-87
2021/03/16 13:31:45;;;;;;;27.02;21.02;;;;;;;9.29;56.01;98228.11;2153523;83;21340;-88
2021/03/16 13:34:47;;;;;;;26.48;17.67;;;;;;;9.21;55.91;98236.05;2128797;83;21142;-92
2021/03/16 13:37:49;;;;;;;21.68;15.70;;;;;;;9.15;55.58;98234.18;2117578;83;21321;-85
2021/03/16 13:40:50;;;;;;;14.75;11.93;;;;;;;9.10;55.51;98236.02;2116708;81;21269;-85
2021/03/16 13:43:52;;;;;;;14.25;12.60;;;;;;;9.06;54.92;98239.99;2121457;83;21277;-88
2021/03/16 13:46:55;;;;;;;12.47;10.98;;;;;;;9.08;54.84;98239.81;2151424;82;21154;-87
2021/03/16 13:49:56;;;;;;;13.28;10.40;;;;;;;9.16;54.37;98233.68;2151810;82;21202;-85
2021/03/16 13:52:58;;;;;;;12.60;9.08;;;;;;;9.19;54.02;98243.75;2129625;83;21285;-88
2021/03/16 13:56:00;;;;;;;12.00;10.32;;;;;;;9.11;53.27;98244.16;2123634;83;21269;-89
2021/03/16 13:59:01;;;;;;;14.40;11.80;;;;;;;9.11;53.92;98261.14;2132384;83;21289;-87
2021/03/16 14:02:03;;;;;;;12.35;9.98;;;;;;;9.00;55.67;98256.87;2143378;83;21774;-89
2021/03/16 14:05:04;;;;;;;12.37;9.45;;;;;;;8.91;55.07;98277.03;2134011;83;22176;-88
2021/03/16 14:08:06;;;;;;;11.40;8.20;;;;;;;8.64;54.96;98284.16;2139639;83;21146;-88
2021/03/16 14:11:07;;;;;;;12.05;9.18;;;;;;;8.11;55.63;98294.48;2115720;83;21174;-82
2021/03/16 14:50:07;;;;;;;30.90;22.60;;;;;;;5.89;66.87;98326.06;2155370;80;28244;-83
2021/03/16 14:53:08;;;;;;;32.20;19.45;;;;;;;5.71;65.81;98341.27;2110680;84;21219;-83
2021/03/16 14:56:09;;;;;;;28.57;14.73;;;;;;;5.50;66.33;98351.27;2152360;81;21112;-84
2021/03/16 14:59:11;;;;;;;31.37;17.82;;;;;;;5.33;65.48;98346.97;2187254;81;21242;-84
2021/03/16 15:02:12;;;;;;;37.30;21.42;;;;;;;5.24;65.79;98342.70;2187630;81;21135;-83
2021/03/16 15:05:13;;;;;;;37.13;21.80;;;;;;;5.18;66.60;98344.61;2187517;81;21168;-82
2021/03/16 15:08:15;;;;;;;46.58;24.23;;;;;;;5.13;66.72;98341.19;2187429;81;21729;-82
2021/03/16 15:11:16;;;;;;;38.70;22.30;;;;;;;5.14;66.78;98343.62;2180317;81;21593;-81
2021/03/16 15:14:18;;;;;;;53.60;29.72;;;;;;;5.14;67.99;98348.81;2146173;81;21092;-85
2021/03/16 15:17:20;;;;;;;38.17;21.68;;;;;;;5.10;67.94;98352.67;2158169;81;21116;-85
2021/03/16 15:20:21;;;;;;;42.17;25.88;;;;;;;5.07;69.44;98356.88;2177518;81;21313;-84
2021/03/16 15:23:22;;;;;;;39.90;24.15;;;;;;;4.98;69.05;98357.80;2187892;81;21182;-83
2021/03/16 15:26:25;;;;;;;39.38;21.73;;;;;;;4.95;69.78;98350.81;2160269;81;21179;-83
2021/03/16 15:29:26;;;;;;;31.27;17.60;;;;;;;4.95;70.97;98352.11;2161386;81;21285;-84